createdAt,value
2023-02-03T00:05:56.011Z,80.18
2023-02-03T00:11:00.269Z,80.32
2023-02-03T00:36:53.987Z,80.61
2023-02-03T00:41:57.355Z,80.68
2023-02-03T00:47:00.839Z,80.78
2023-02-03T00:52:04.756Z,80.89
2023-02-03T01:04:16.415Z,81.46
2023-02-03T01:09:19.938Z,81.61
2023-02-03T01:14:23.457Z,81.79
2023-02-03T01:19:27.386Z,81.65
2023-02-03T01:33:00.968Z,81.57
2023-02-03T01:38:04.602Z,81.54
2023-02-03T01:44:01.624Z,81.67
2023-02-03T01:49:14.613Z,81.61
2023-02-03T01:54:25.128Z,81.82
2023-02-03T01:59:31.913Z,82.20
2023-02-03T02:04:57.057Z,82.34
2023-02-03T02:20:15.448Z,82.40
2023-02-03T02:36:10.135Z,82.18
2023-02-03T02:41:41.675Z,82.19
2023-02-03T02:46:50.964Z,82.41
2023-02-03T03:00:41.256Z,82.65
2023-02-03T03:05:54.387Z,82.71
2023-02-03T03:11:44.179Z,82.75
2023-02-03T03:16:57.016Z,82.68
2023-02-03T03:22:07.699Z,82.67
2023-02-03T03:28:30.894Z,82.74
2023-02-03T03:33:34.362Z,82.66
2023-02-03T03:39:27.998Z,82.68
2023-02-03T03:44:48.559Z,82.67
2023-02-03T03:49:55.329Z,82.67
2023-02-03T03:56:18.967Z,82.68
2023-02-03T04:01:24.451Z,82.71
2023-02-03T04:13:36.452Z,82.77
2023-02-03T04:18:40.100Z,82.82
2023-02-03T04:23:43.628Z,82.84
2023-02-03T04:43:28.539Z,82.93
2023-02-03T04:49:11.867Z,82.89
2023-02-03T04:54:15.671Z,82.83
2023-02-03T04:59:19.267Z,82.79
2023-02-03T05:04:23.230Z,82.95
2023-02-03T05:09:29.590Z,83.19
2023-02-03T05:23:11.039Z,82.86
2023-02-03T05:28:40.470Z,82.91
2023-02-03T05:34:21.890Z,82.86
2023-02-03T05:39:25.497Z,82.83
2023-02-03T05:44:29.645Z,83.08
2023-02-03T05:49:33.160Z,83.25
2023-02-03T05:54:36.969Z,83.31
2023-02-03T05:59:41.853Z,83.32
2023-02-03T06:04:45.675Z,83.82
2023-02-03T06:18:18.831Z,84.43
2023-02-03T06:44:36.580Z,84.49
2023-02-03T06:49:40.056Z,84.43
2023-02-03T07:10:53.244Z,83.14
2023-02-03T07:15:57.406Z,82.54
2023-02-03T07:21:01.161Z,81.43
2023-02-03T07:26:07.761Z,80.76
2023-02-03T07:32:07.832Z,80.81
2023-02-03T07:37:11.514Z,80.89
2023-02-03T07:42:15.197Z,80.88
2023-02-03T07:54:39.508Z,80.67
2023-02-03T07:59:43.239Z,80.28
2023-02-03T08:13:50.291Z,79.14
2023-02-03T08:18:53.919Z,76.89
2023-02-03T08:23:57.768Z,75.43
2023-02-03T08:29:51.827Z,75.03
2023-02-03T08:49:12.966Z,77.98
2023-02-03T09:20:24.965Z,79.43
2023-02-03T09:26:20.660Z,79.42
2023-02-03T09:31:24.330Z,79.40
2023-02-03T09:36:28.625Z,79.25
2023-02-03T09:42:04.446Z,79.51
2023-02-03T09:47:19.255Z,79.46
2023-02-03T09:52:41.088Z,79.75
2023-02-03T10:13:09.203Z,79.89
2023-02-03T10:18:36.867Z,79.79
2023-02-03T10:23:55.353Z,79.88
2023-02-03T10:29:13.798Z,79.61
2023-02-03T10:34:20.890Z,79.46
2023-02-03T10:46:16.059Z,78.74
2023-02-03T10:52:05.268Z,78.64
2023-02-03T11:06:05.476Z,79.14
2023-02-03T11:11:32.139Z,79.06
2023-02-03T11:16:39.592Z,79.07
2023-02-03T11:21:49.836Z,79.08
2023-02-03T11:27:08.511Z,79.13
2023-02-03T11:32:19.803Z,78.89
2023-02-03T11:44:34.564Z,79.24
2023-02-03T11:50:36.425Z,79.97
2023-02-03T11:56:12.002Z,81.01
2023-02-03T12:01:49.804Z,81.51
2023-02-03T12:07:22.314Z,81.76
2023-02-03T12:13:06.480Z,82.07
2023-02-03T12:18:39.607Z,82.74
2023-02-03T12:24:24.705Z,83.03
2023-02-03T12:30:03.312Z,83.11
2023-02-03T12:35:23.336Z,83.44
2023-02-03T12:40:53.062Z,83.89
2023-02-03T12:46:22.745Z,84.22
2023-02-03T12:52:04.750Z,84.47
2023-02-03T12:57:37.262Z,84.76
2023-02-03T13:03:07.896Z,84.97
2023-02-03T13:08:39.709Z,84.96
2023-02-03T13:13:59.153Z,85.05
2023-02-03T13:19:17.892Z,85.03
2023-02-03T13:24:28.547Z,85.21
2023-02-03T13:29:54.589Z,85.29
2023-02-03T13:35:54.086Z,85.61
2023-02-03T13:41:29.297Z,85.66
2023-02-03T13:46:53.315Z,85.74
2023-02-03T13:51:57.803Z,85.87
2023-02-03T13:57:52.297Z,85.92
2023-02-03T14:02:57.223Z,85.82
2023-02-03T14:09:18.843Z,85.82
2023-02-03T14:29:02.359Z,86.04
2023-02-03T14:34:46.237Z,86.00
2023-02-03T14:40:49.767Z,86.06
2023-02-03T14:46:33.163Z,86.76
2023-02-03T14:52:15.203Z,86.87
2023-02-03T15:04:50.860Z,88.71
2023-02-03T15:10:55.103Z,89.38
2023-02-03T15:23:59.749Z,90.47
2023-02-03T15:29:41.513Z,90.79
2023-02-03T15:34:49.448Z,90.42
2023-02-03T15:47:05.547Z,90.32
2023-02-03T15:52:25.098Z,90.57
2023-02-03T15:57:35.076Z,90.26
2023-02-03T16:02:47.603Z,89.92
2023-02-03T16:07:52.339Z,89.68
2023-02-03T16:13:23.606Z,89.61
2023-02-03T16:18:27.425Z,89.61
2023-02-03T16:23:31.251Z,89.14
2023-02-03T16:29:56.549Z,88.81
2023-02-03T16:35:19.090Z,87.82
2023-02-03T16:40:43.535Z,87.92
2023-02-03T16:46:14.902Z,88.07
2023-02-03T16:51:44.375Z,87.83
2023-02-03T16:56:56.639Z,87.16
2023-02-03T17:02:05.497Z,86.86
2023-02-03T17:07:09.544Z,86.71
2023-02-03T17:12:13.477Z,86.54
2023-02-03T17:17:17.319Z,86.07
2023-02-03T17:22:21.448Z,85.81
2023-02-03T17:27:25.389Z,85.53
2023-02-03T17:32:29.309Z,85.23
2023-02-03T17:38:02.059Z,85.23
2023-02-03T17:54:09.191Z,84.77
2023-02-03T17:59:12.968Z,84.79
2023-02-03T18:04:16.750Z,84.71
2023-02-03T18:09:24.206Z,84.50
2023-02-03T18:14:47.352Z,84.46
2023-02-03T18:19:56.466Z,84.28
2023-02-03T18:25:58.052Z,84.07
2023-02-03T18:31:56.926Z,84.06
2023-02-03T18:38:23.939Z,84.00
2023-02-03T18:44:50.145Z,84.19
2023-02-03T18:58:24.086Z,83.96
2023-02-03T19:10:46.347Z,84.00
2023-02-03T19:15:53.269Z,84.28
2023-02-03T19:20:58.277Z,84.13
2023-02-03T19:26:06.068Z,84.03
2023-02-03T19:38:20.573Z,84.61
2023-02-03T19:43:28.043Z,84.99
2023-02-03T19:48:31.846Z,85.02
2023-02-03T19:53:36.801Z,84.71
2023-02-03T19:58:40.853Z,84.24
2023-02-03T20:03:48.905Z,84.00
2023-02-03T20:08:59.971Z,83.82
2023-02-03T20:14:05.955Z,83.76
2023-02-03T20:19:10.971Z,83.63
2023-02-03T20:24:15.091Z,83.75
2023-02-03T20:29:37.795Z,83.57
2023-02-03T20:34:41.809Z,83.72
2023-02-03T20:39:46.438Z,83.69
2023-02-03T20:45:46.493Z,84.49
2023-02-03T20:50:54.097Z,84.41
2023-02-03T20:56:02.423Z,83.86
2023-02-03T21:02:23.657Z,83.82
2023-02-03T21:07:32.833Z,83.71
2023-02-03T21:12:36.652Z,83.64
2023-02-03T21:17:40.421Z,83.64
2023-02-03T21:22:44.419Z,83.50
2023-02-03T21:27:48.621Z,83.30
2023-02-03T21:32:52.370Z,83.28
2023-02-03T21:38:04.762Z,83.19
2023-02-03T21:43:26.646Z,83.14
2023-02-03T21:48:41.076Z,83.01
2023-02-03T21:53:55.181Z,82.84
2023-02-03T21:59:00.239Z,82.71
2023-02-03T22:04:06.965Z,82.44
2023-02-03T22:09:23.229Z,82.14
2023-02-03T22:29:44.142Z,82.07
2023-02-03T22:36:11.985Z,82.14
2023-02-03T22:41:58.376Z,82.25
2023-02-03T22:47:55.201Z,82.16
2023-02-03T22:53:07.914Z,82.22
2023-02-03T22:58:14.728Z,82.11
2023-02-03T23:03:21.839Z,82.02
2023-02-03T23:16:40.254Z,82.10
2023-02-03T23:22:19.556Z,81.96
2023-02-03T23:28:39.609Z,82.01
2023-02-03T23:34:06.404Z,82.01
2023-02-03T23:39:10.196Z,81.97
2023-02-03T23:44:14.061Z,81.98
2023-02-03T23:50:57.474Z,81.88
2023-02-03T23:56:01.540Z,81.96
